createdAt,value
2023-03-27T00:00:01.448Z,1.98
2023-03-27T00:01:03.117Z,2.45
2023-03-27T00:02:05.008Z,0.98
2023-03-27T00:03:07.082Z,1.50
2023-03-27T00:04:09.224Z,1.40
2023-03-27T00:05:10.966Z,1.15
2023-03-27T00:06:16.838Z,1.50
2023-03-27T00:07:20.048Z,1.55
2023-03-27T00:08:21.732Z,1.67
2023-03-27T00:09:23.376Z,1.33
2023-03-27T00:10:25.085Z,0.90
2023-03-27T00:11:26.784Z,1.77
2023-03-27T00:12:28.443Z,2.33
2023-03-27T00:13:30.589Z,2.00
2023-03-27T00:14:32.317Z,0.90
2023-03-27T00:15:34.922Z,1.10
2023-03-27T00:17:39.049Z,0.98
2023-03-27T00:18:40.713Z,0.98
2023-03-27T00:19:42.373Z,1.35
2023-03-27T00:20:44.774Z,1.58
2023-03-27T00:21:46.401Z,2.72
2023-03-27T00:22:50.068Z,2.17
2023-03-27T00:23:52.354Z,0.85
2023-03-27T00:24:54.028Z,1.88
2023-03-27T00:25:57.634Z,1.08
2023-03-27T00:26:59.301Z,1.48
2023-03-27T00:28:01.803Z,2.13
2023-03-27T00:30:07.289Z,0.98
2023-03-27T00:32:14.277Z,1.50
2023-03-27T00:33:15.867Z,1.13
2023-03-27T00:34:17.596Z,1.50
2023-03-27T00:35:19.256Z,1.40
2023-03-27T00:36:21.283Z,1.48
2023-03-27T00:37:22.934Z,2.35
2023-03-27T00:38:24.625Z,1.52
2023-03-27T00:39:26.387Z,1.48
2023-03-27T00:40:28.097Z,1.08
2023-03-27T00:41:29.724Z,2.53
2023-03-27T00:42:31.397Z,1.70
2023-03-27T00:43:34.702Z,2.67
2023-03-27T00:44:39.569Z,1.00
2023-03-27T00:45:41.432Z,1.17
2023-03-27T00:46:44.908Z,2.40
2023-03-27T00:47:48.210Z,1.55
2023-03-27T00:48:51.575Z,1.83
2023-03-27T00:49:53.231Z,1.48
2023-03-27T00:50:56.623Z,1.63
2023-03-27T00:51:59.159Z,2.33
2023-03-27T00:53:10.550Z,2.45
2023-03-27T00:54:16.229Z,1.23
2023-03-27T00:55:20.013Z,1.65
2023-03-27T00:56:23.145Z,1.50
2023-03-27T00:57:25.170Z,3.72
2023-03-27T00:58:29.671Z,1.80
2023-03-27T00:59:37.311Z,3.35
2023-03-27T01:00:39.331Z,1.33
2023-03-27T01:01:42.212Z,1.75
2023-03-27T01:02:47.832Z,2.38
2023-03-27T01:03:50.620Z,2.75
2023-03-27T01:04:53.604Z,2.28
2023-03-27T01:05:56.377Z,1.38
2023-03-27T01:06:58.988Z,1.25
2023-03-27T01:08:03.794Z,1.92
2023-03-27T01:09:09.330Z,2.30
2023-03-27T01:10:13.205Z,1.35
2023-03-27T01:11:55.437Z,1.50
2023-03-27T01:13:03.408Z,3.05
2023-03-27T01:14:08.935Z,1.23
2023-03-27T01:15:32.957Z,2.03
2023-03-27T01:16:52.890Z,1.77
2023-03-27T01:18:03.667Z,1.77
2023-03-27T01:19:26.916Z,2.15
2023-03-27T01:21:00.378Z,1.30
2023-03-27T01:22:17.385Z,1.77
2023-03-27T01:23:59.680Z,1.77
2023-03-27T01:25:30.643Z,1.98
2023-03-27T01:27:11.456Z,1.30
2023-03-27T01:28:35.126Z,1.60
2023-03-27T01:30:06.393Z,1.35
2023-03-27T01:31:22.952Z,1.40
2023-03-27T01:32:25.074Z,1.40
2023-03-27T01:33:48.521Z,1.67
2023-03-27T01:35:03.217Z,2.08
2023-03-27T01:36:49.144Z,2.92
2023-03-27T01:38:04.069Z,2.00
2023-03-27T01:39:23.528Z,1.73
2023-03-27T01:40:56.634Z,1.77
2023-03-27T01:41:58.553Z,1.70
2023-03-27T01:43:04.767Z,1.13
2023-03-27T01:44:43.722Z,1.45
2023-03-27T01:45:57.851Z,1.35
2023-03-27T01:47:09.988Z,1.92
2023-03-27T01:48:12.182Z,2.97
2023-03-27T01:49:19.251Z,2.13
2023-03-27T01:50:30.209Z,2.25
2023-03-27T01:51:38.298Z,2.05
2023-03-27T01:52:43.532Z,2.25
2023-03-27T01:53:50.040Z,3.10
2023-03-27T01:54:58.781Z,1.90
2023-03-27T01:56:06.057Z,1.92
2023-03-27T01:57:16.549Z,1.52
2023-03-27T01:58:23.639Z,1.85
2023-03-27T01:59:28.629Z,2.65
2023-03-27T02:00:52.020Z,1.88
2023-03-27T02:01:59.609Z,2.10
2023-03-27T02:03:10.386Z,1.85
2023-03-27T02:04:24.710Z,1.77
2023-03-27T02:05:34.892Z,2.13
2023-03-27T02:06:40.756Z,1.65
2023-03-27T02:08:17.254Z,1.92
2023-03-27T02:09:22.968Z,1.85
2023-03-27T02:10:32.964Z,1.65
2023-03-27T02:12:09.445Z,1.92
2023-03-27T02:13:20.277Z,2.13
2023-03-27T02:14:29.209Z,1.70
2023-03-27T02:15:35.511Z,2.58
2023-03-27T02:16:42.759Z,1.67
2023-03-27T02:17:50.858Z,2.20
2023-03-27T02:18:59.515Z,2.15
2023-03-27T02:21:14.156Z,2.03
2023-03-27T02:22:19.101Z,2.08
2023-03-27T02:23:39.976Z,2.25
2023-03-27T02:24:43.597Z,2.25
2023-03-27T02:25:46.811Z,2.30
2023-03-27T02:26:54.579Z,3.67
2023-03-27T02:28:26.529Z,2.55
2023-03-27T02:29:42.213Z,2.67
2023-03-27T02:31:06.200Z,2.03
2023-03-27T02:32:38.177Z,2.20
2023-03-27T02:33:40.049Z,2.05
2023-03-27T02:35:07.197Z,1.67
2023-03-27T02:36:53.810Z,2.35
2023-03-27T02:38:09.613Z,1.98
2023-03-27T02:39:38.337Z,2.05
2023-03-27T02:40:47.967Z,2.10
2023-03-27T02:42:21.407Z,1.92
2023-03-27T02:43:38.532Z,2.00
2023-03-27T02:45:02.453Z,3.30
2023-03-27T02:46:25.420Z,1.75
2023-03-27T02:47:39.866Z,2.47
2023-03-27T02:48:52.486Z,1.98
2023-03-27T02:49:59.554Z,1.85
2023-03-27T02:51:13.294Z,1.92
2023-03-27T02:52:23.366Z,2.72
2023-03-27T02:53:26.760Z,2.83
2023-03-27T02:54:52.384Z,3.15
2023-03-27T02:56:02.033Z,2.28
2023-03-27T02:57:08.580Z,2.42
2023-03-27T02:58:50.484Z,2.10
2023-03-27T03:00:20.952Z,2.00
2023-03-27T03:01:31.709Z,1.88
2023-03-27T03:03:28.230Z,1.60
2023-03-27T03:04:46.392Z,1.88
2023-03-27T03:05:56.354Z,1.77
2023-03-27T03:06:59.434Z,2.97
2023-03-27T03:08:03.181Z,2.20
2023-03-27T03:09:06.603Z,1.73
2023-03-27T03:10:11.721Z,2.67
2023-03-27T03:11:15.057Z,2.28
2023-03-27T03:12:17.275Z,2.72
2023-03-27T03:13:20.441Z,2.30
2023-03-27T03:14:28.793Z,3.95
2023-03-27T03:15:30.802Z,2.00
2023-03-27T03:16:33.037Z,2.45
2023-03-27T03:17:35.547Z,1.88
2023-03-27T03:18:40.159Z,1.90
2023-03-27T03:19:42.892Z,1.88
2023-03-27T03:20:46.493Z,1.90
2023-03-27T03:21:49.643Z,2.30
2023-03-27T03:22:52.039Z,2.83
2023-03-27T03:25:02.225Z,2.30
2023-03-27T03:26:06.757Z,2.70
2023-03-27T03:27:22.063Z,2.65
2023-03-27T03:28:59.832Z,1.65
2023-03-27T03:30:10.103Z,1.92
2023-03-27T03:31:43.485Z,4.07
2023-03-27T03:32:47.716Z,2.15
2023-03-27T03:33:49.838Z,2.42
2023-03-27T03:34:52.412Z,1.77
2023-03-27T03:37:04.407Z,1.70
2023-03-27T03:38:06.773Z,1.90
2023-03-27T03:39:19.546Z,2.08
2023-03-27T03:40:27.269Z,2.55
2023-03-27T03:41:34.541Z,2.30
2023-03-27T03:42:37.205Z,1.52
2023-03-27T03:43:39.293Z,1.17
2023-03-27T03:44:42.957Z,1.90
2023-03-27T03:45:53.831Z,1.35
2023-03-27T03:46:56.103Z,1.67
2023-03-27T03:47:58.752Z,2.30
2023-03-27T03:50:05.251Z,1.98
2023-03-27T03:51:07.985Z,1.58
2023-03-27T03:52:10.073Z,1.60
2023-03-27T03:53:13.139Z,1.70
2023-03-27T03:54:15.466Z,1.40
2023-03-27T03:55:18.969Z,1.27
2023-03-27T03:56:21.838Z,1.20
2023-03-27T03:57:26.289Z,1.10
2023-03-27T03:58:44.576Z,0.60
2023-03-27T03:59:48.444Z,1.20
2023-03-27T04:01:23.347Z,0.50
2023-03-27T04:02:30.882Z,1.27
2023-03-27T04:03:39.221Z,0.80
2023-03-27T04:04:45.403Z,0.60
2023-03-27T04:05:49.070Z,1.13
2023-03-27T04:06:51.180Z,0.63
2023-03-27T04:07:53.589Z,1.10
2023-03-27T04:08:55.641Z,0.30
2023-03-27T04:10:16.688Z,1.08
2023-03-27T04:11:18.688Z,1.30
2023-03-27T04:12:52.160Z,0.73
2023-03-27T04:14:06.307Z,1.30
2023-03-27T04:15:14.887Z,0.88
2023-03-27T04:16:43.069Z,0.77
2023-03-27T04:17:54.722Z,0.63
2023-03-27T04:20:02.634Z,0.47
2023-03-27T04:21:05.091Z,0.70
2023-03-27T04:22:10.784Z,0.45
2023-03-27T04:23:14.031Z,0.57
2023-03-27T04:24:18.325Z,0.80
2023-03-27T04:25:25.217Z,1.02
2023-03-27T04:26:27.609Z,1.17
2023-03-27T04:27:58.836Z,1.08
2023-03-27T04:29:11.597Z,0.82
2023-03-27T04:30:32.282Z,0.85
2023-03-27T04:31:47.782Z,0.70
2023-03-27T04:33:10.398Z,1.30
2023-03-27T04:34:20.601Z,1.10
2023-03-27T04:36:07.416Z,1.05
2023-03-27T04:37:23.672Z,0.85
2023-03-27T04:38:39.272Z,0.65
2023-03-27T04:39:43.619Z,0.80
2023-03-27T04:40:49.848Z,0.77
2023-03-27T04:41:53.873Z,0.70
2023-03-27T04:43:58.647Z,0.38
2023-03-27T04:45:02.084Z,1.00
2023-03-27T04:46:06.923Z,0.70
2023-03-27T04:47:09.734Z,0.57
2023-03-27T04:48:14.991Z,1.33
2023-03-27T04:49:22.410Z,0.88
2023-03-27T04:50:33.865Z,1.90
2023-03-27T04:51:36.406Z,0.70
2023-03-27T04:52:38.473Z,0.77
2023-03-27T04:54:46.902Z,0.80
2023-03-27T04:55:51.398Z,0.75
2023-03-27T04:56:55.117Z,0.80
2023-03-27T04:58:00.528Z,0.80
2023-03-27T04:59:06.008Z,0.90
2023-03-27T05:00:19.268Z,3.20
2023-03-27T05:01:23.333Z,1.75
2023-03-27T05:03:04.794Z,1.20
2023-03-27T05:04:28.623Z,1.33
2023-03-27T05:05:47.151Z,1.00
2023-03-27T05:06:49.112Z,1.95
2023-03-27T05:07:53.925Z,1.13
2023-03-27T05:09:00.587Z,1.42
2023-03-27T05:10:07.162Z,1.63
2023-03-27T05:11:11.165Z,1.42
2023-03-27T05:12:17.399Z,1.45
2023-03-27T05:13:26.612Z,1.58
2023-03-27T05:14:28.409Z,0.80
2023-03-27T05:15:34.016Z,1.42
2023-03-27T05:16:40.496Z,1.40
2023-03-27T05:17:44.120Z,1.10
2023-03-27T05:18:46.099Z,1.33
2023-03-27T05:19:48.153Z,1.52
2023-03-27T05:20:50.333Z,1.17
2023-03-27T05:21:52.728Z,0.55
2023-03-27T05:22:58.106Z,1.30
2023-03-27T05:24:02.314Z,1.20
2023-03-27T05:25:05.086Z,1.40
2023-03-27T05:26:07.758Z,1.05
2023-03-27T05:27:26.028Z,1.23
2023-03-27T05:28:31.542Z,1.13
2023-03-27T05:29:46.678Z,1.40
2023-03-27T05:30:50.255Z,1.00
2023-03-27T05:31:55.442Z,1.42
2023-03-27T05:33:20.746Z,0.73
2023-03-27T05:35:28.823Z,0.47
2023-03-27T05:36:33.666Z,0.50
2023-03-27T05:37:36.527Z,0.73
2023-03-27T05:38:58.919Z,1.02
2023-03-27T05:40:06.918Z,0.88
2023-03-27T05:41:10.350Z,0.60
2023-03-27T05:42:16.692Z,0.70
2023-03-27T05:43:18.555Z,0.90
2023-03-27T05:44:20.458Z,0.30
2023-03-27T05:45:23.333Z,0.50
2023-03-27T05:46:26.090Z,1.33
2023-03-27T05:47:49.899Z,0.55
2023-03-27T05:48:52.865Z,0.50
2023-03-27T05:49:55.228Z,0.60
2023-03-27T05:50:57.524Z,0.98
2023-03-27T05:52:00.071Z,1.17
2023-03-27T05:53:10.313Z,1.25
2023-03-27T05:55:33.230Z,0.52
2023-03-27T05:57:40.818Z,0.40
2023-03-27T05:58:43.491Z,0.40
2023-03-27T05:59:45.341Z,1.25
2023-03-27T06:00:54.582Z,0.90
2023-03-27T06:01:59.291Z,1.52
2023-03-27T06:03:13.115Z,0.77
2023-03-27T06:04:34.531Z,0.90
2023-03-27T06:05:49.076Z,0.73
2023-03-27T06:07:55.012Z,1.42
2023-03-27T06:08:57.284Z,0.60
2023-03-27T06:10:00.655Z,1.02
2023-03-27T06:11:12.385Z,0.90
2023-03-27T06:12:21.869Z,0.43
2023-03-27T06:13:27.917Z,0.70
2023-03-27T06:14:32.864Z,0.57
2023-03-27T06:15:55.222Z,1.70
2023-03-27T06:17:16.411Z,0.50
2023-03-27T06:19:28.383Z,0.77
2023-03-27T06:20:31.648Z,1.23
2023-03-27T06:21:35.039Z,0.52
2023-03-27T06:22:40.120Z,1.38
2023-03-27T06:23:42.736Z,0.85
2023-03-27T06:24:49.698Z,0.90
2023-03-27T06:25:54.267Z,0.52
2023-03-27T06:26:59.153Z,0.52
2023-03-27T06:28:08.161Z,0.73
2023-03-27T06:29:19.704Z,2.22
2023-03-27T06:30:27.307Z,0.60
2023-03-27T06:31:48.508Z,0.40
2023-03-27T06:33:15.296Z,1.20
2023-03-27T06:34:18.158Z,0.32
2023-03-27T06:35:37.364Z,1.15
2023-03-27T06:36:50.790Z,1.67
2023-03-27T06:37:53.509Z,2.33
2023-03-27T06:38:58.480Z,0.22
2023-03-27T06:40:02.370Z,0.50
2023-03-27T06:41:04.866Z,0.73
2023-03-27T06:42:27.521Z,0.45
2023-03-27T06:43:54.900Z,0.50
2023-03-27T06:45:16.954Z,0.52
2023-03-27T06:46:56.628Z,0.50
2023-03-27T06:48:22.619Z,0.80
2023-03-27T06:50:33.170Z,0.88
2023-03-27T06:51:35.641Z,0.93
2023-03-27T06:52:39.961Z,1.60
2023-03-27T06:54:05.775Z,2.28
2023-03-27T06:55:15.098Z,1.80
2023-03-27T06:56:25.134Z,1.75
2023-03-27T06:57:58.205Z,0.90
2023-03-27T06:59:01.838Z,1.70
2023-03-27T07:00:12.733Z,2.10
2023-03-27T07:01:34.609Z,1.50
2023-03-27T07:03:08.437Z,1.77
2023-03-27T07:04:23.469Z,1.75
2023-03-27T07:05:40.985Z,2.40
2023-03-27T07:06:43.648Z,3.10
2023-03-27T07:07:49.412Z,2.03
2023-03-27T07:08:52.465Z,1.98
2023-03-27T07:09:54.925Z,2.15
2023-03-27T07:11:11.728Z,4.07
2023-03-27T07:12:24.894Z,3.38
2023-03-27T07:13:27.433Z,4.35
2023-03-27T07:14:29.832Z,3.05
2023-03-27T07:15:33.018Z,4.35
2023-03-27T07:16:35.074Z,5.57
2023-03-27T07:17:47.954Z,3.75
2023-03-27T07:18:51.608Z,3.88
2023-03-27T07:21:00.257Z,3.28
2023-03-27T07:22:03.631Z,4.00
2023-03-27T07:23:08.316Z,4.80
2023-03-27T07:24:33.668Z,2.67
2023-03-27T07:25:39.121Z,3.45
2023-03-27T07:26:44.990Z,6.13
2023-03-27T07:28:00.329Z,4.68
2023-03-27T07:29:03.333Z,4.35
2023-03-27T07:30:08.494Z,4.68
2023-03-27T07:31:27.615Z,6.68
2023-03-27T07:32:37.968Z,6.15
2023-03-27T07:33:43.243Z,5.20
2023-03-27T07:34:46.764Z,6.85
2023-03-27T07:35:51.619Z,6.93
2023-03-27T07:37:12.070Z,5.03
2023-03-27T07:38:23.053Z,7.65
2023-03-27T07:39:39.825Z,4.53
2023-03-27T07:40:43.384Z,5.70
2023-03-27T07:42:09.029Z,4.95
2023-03-27T07:43:36.919Z,6.88
2023-03-27T07:44:40.031Z,7.78
2023-03-27T07:45:44.343Z,6.20
2023-03-27T07:47:50.097Z,7.28
2023-03-27T07:48:52.599Z,8.20
2023-03-27T07:49:57.830Z,5.15
2023-03-27T07:51:13.448Z,7.90
2023-03-27T07:52:16.904Z,5.97
2023-03-27T07:53:34.626Z,4.32
2023-03-27T07:54:56.928Z,9.88
2023-03-27T07:56:04.028Z,5.93
2023-03-27T07:57:08.900Z,6.95
2023-03-27T07:58:26.781Z,7.75
2023-03-27T07:59:31.370Z,5.55
2023-03-27T08:00:43.181Z,11.02
2023-03-27T08:01:50.738Z,7.70
2023-03-27T08:02:53.865Z,7.10
2023-03-27T08:03:57.580Z,9.57
2023-03-27T08:05:05.644Z,7.32
2023-03-27T08:06:10.927Z,8.15
2023-03-27T08:07:12.976Z,6.50
2023-03-27T08:08:18.580Z,7.03
2023-03-27T08:09:25.846Z,8.90
2023-03-27T08:10:28.397Z,4.63
2023-03-27T08:11:34.846Z,9.48
2023-03-27T08:12:37.285Z,10.85
2023-03-27T08:13:41.666Z,9.18
2023-03-27T08:14:47.331Z,11.15
2023-03-27T08:16:09.541Z,7.25
2023-03-27T08:17:16.081Z,10.52
2023-03-27T08:18:19.888Z,8.23
2023-03-27T08:19:22.195Z,9.93
2023-03-27T08:20:30.756Z,8.77
2023-03-27T08:21:34.653Z,6.53
2023-03-27T08:22:38.951Z,7.50
2023-03-27T08:24:07.789Z,9.35
2023-03-27T08:25:13.082Z,6.28
2023-03-27T08:26:16.672Z,10.32
2023-03-27T08:27:26.317Z,6.85
2023-03-27T08:28:34.179Z,7.07
2023-03-27T08:29:36.978Z,10.00
2023-03-27T08:30:40.394Z,9.65
2023-03-27T08:31:43.410Z,7.43
2023-03-27T08:32:45.574Z,11.30
2023-03-27T08:33:47.820Z,10.60
2023-03-27T08:35:01.005Z,9.55
2023-03-27T08:36:05.739Z,8.00
2023-03-27T08:37:09.225Z,8.95
2023-03-27T08:38:26.746Z,9.32
2023-03-27T08:39:35.012Z,8.55
2023-03-27T08:40:39.463Z,8.23
2023-03-27T08:42:18.829Z,5.22
2023-03-27T08:43:31.954Z,8.48
2023-03-27T08:44:35.540Z,7.03
2023-03-27T08:45:47.241Z,8.95
2023-03-27T08:47:14.044Z,10.02
2023-03-27T08:48:45.499Z,8.20
2023-03-27T08:49:56.967Z,10.93
2023-03-27T08:51:05.970Z,14.77
2023-03-27T08:52:16.063Z,8.23
2023-03-27T08:53:32.327Z,11.15
2023-03-27T08:54:37.579Z,6.25
2023-03-27T08:55:42.365Z,10.73
2023-03-27T08:56:52.421Z,5.22
2023-03-27T08:57:55.067Z,10.35
2023-03-27T08:58:59.041Z,8.52
2023-03-27T09:00:06.809Z,11.50
2023-03-27T09:01:22.419Z,6.78
2023-03-27T09:02:39.861Z,7.45
2023-03-27T09:04:05.457Z,3.08
2023-03-27T09:05:31.374Z,6.13
2023-03-27T09:06:57.172Z,6.30
2023-03-27T09:08:21.587Z,10.10
2023-03-27T09:09:59.617Z,9.18
2023-03-27T09:11:39.846Z,6.90
2023-03-27T09:13:04.802Z,6.35
2023-03-27T09:14:27.299Z,5.68
2023-03-27T09:15:46.729Z,8.93
2023-03-27T09:16:51.372Z,5.32
2023-03-27T09:18:33.904Z,6.80
2023-03-27T09:19:44.516Z,6.70
2023-03-27T09:22:08.396Z,2.42
2023-03-27T09:23:58.112Z,6.35
2023-03-27T09:25:36.461Z,7.15
2023-03-27T09:27:06.753Z,5.28
2023-03-27T09:28:50.978Z,6.47
2023-03-27T09:30:12.364Z,6.68
2023-03-27T09:31:37.034Z,7.63
2023-03-27T09:32:54.575Z,6.55
2023-03-27T09:34:05.840Z,4.68
2023-03-27T09:35:10.496Z,9.98
2023-03-27T09:36:12.332Z,7.47
2023-03-27T09:37:18.132Z,5.40
2023-03-27T09:38:31.666Z,6.50
2023-03-27T09:39:35.461Z,10.88
2023-03-27T09:41:00.518Z,5.82
2023-03-27T09:42:37.552Z,7.40
2023-03-27T09:43:44.458Z,8.05
2023-03-27T09:44:51.086Z,5.60
2023-03-27T09:45:56.074Z,7.20
2023-03-27T09:47:02.618Z,5.00
2023-03-27T09:48:10.406Z,9.57
2023-03-27T09:49:21.334Z,7.80
2023-03-27T09:50:41.909Z,7.38
2023-03-27T09:51:52.383Z,5.22
2023-03-27T09:53:23.052Z,5.10
2023-03-27T09:54:54.863Z,7.10
2023-03-27T09:56:14.945Z,6.55
2023-03-27T09:57:22.063Z,6.05
2023-03-27T09:58:33.993Z,6.65
2023-03-27T09:59:38.897Z,7.07
2023-03-27T10:00:50.228Z,7.30
2023-03-27T10:01:56.243Z,4.57
2023-03-27T10:03:25.992Z,6.15
2023-03-27T10:04:32.732Z,5.50
2023-03-27T10:05:37.346Z,6.85
2023-03-27T10:07:02.938Z,7.45
2023-03-27T10:08:42.608Z,5.88
2023-03-27T10:10:17.834Z,6.85
2023-03-27T10:11:48.826Z,7.13
2023-03-27T10:13:02.629Z,5.13
2023-03-27T10:14:20.524Z,7.05
2023-03-27T10:15:35.430Z,5.57
2023-03-27T10:16:40.384Z,5.80
2023-03-27T10:17:49.575Z,6.65
2023-03-27T10:18:56.037Z,4.30
2023-03-27T10:20:09.527Z,7.40
2023-03-27T10:21:35.902Z,4.68
2023-03-27T10:23:04.858Z,4.53
2023-03-27T10:24:17.889Z,8.60
2023-03-27T10:25:50.293Z,6.35
2023-03-27T10:27:05.414Z,6.82
2023-03-27T10:28:11.331Z,6.03
2023-03-27T10:29:36.789Z,5.60
2023-03-27T10:30:42.396Z,4.90
2023-03-27T10:32:06.474Z,8.63
2023-03-27T10:33:29.947Z,4.40
2023-03-27T10:34:51.712Z,5.63
2023-03-27T10:36:20.803Z,5.70
2023-03-27T10:37:28.443Z,5.93
2023-03-27T10:39:01.272Z,6.72
2023-03-27T10:40:17.952Z,7.93
2023-03-27T10:41:28.774Z,4.93
2023-03-27T10:42:34.953Z,6.57
2023-03-27T10:43:41.631Z,4.32
2023-03-27T10:44:46.649Z,5.15
2023-03-27T10:45:54.622Z,7.30
2023-03-27T10:48:02.105Z,6.68
2023-03-27T10:49:10.826Z,6.00
2023-03-27T10:50:22.127Z,5.50
2023-03-27T10:51:59.500Z,7.85
2023-03-27T10:53:22.090Z,5.43
2023-03-27T10:54:36.220Z,5.32
2023-03-27T10:56:10.955Z,5.18
2023-03-27T10:57:14.254Z,6.05
2023-03-27T10:58:43.151Z,4.28
2023-03-27T11:00:00.903Z,6.15
2023-03-27T11:01:18.575Z,5.82
2023-03-27T11:02:39.052Z,7.78
2023-03-27T11:03:54.341Z,2.90
2023-03-27T11:05:19.595Z,5.13
2023-03-27T11:06:23.583Z,5.72
2023-03-27T11:07:55.986Z,6.15
2023-03-27T11:09:02.329Z,5.18
2023-03-27T11:10:13.833Z,4.20
2023-03-27T11:11:40.774Z,7.53
2023-03-27T11:12:51.106Z,5.10
2023-03-27T11:13:54.084Z,4.38
2023-03-27T11:15:20.159Z,6.40
2023-03-27T11:16:30.835Z,4.78
2023-03-27T11:18:01.206Z,7.38
2023-03-27T11:19:11.582Z,3.40
2023-03-27T11:20:56.909Z,5.80
2023-03-27T11:22:45.030Z,2.70
2023-03-27T11:24:17.905Z,5.88
2023-03-27T11:25:43.726Z,6.18
2023-03-27T11:27:03.492Z,5.45
2023-03-27T11:28:32.685Z,3.85
2023-03-27T11:29:42.866Z,3.67
2023-03-27T11:30:44.887Z,4.43
2023-03-27T11:31:49.870Z,3.75
2023-03-27T11:33:27.324Z,5.95
2023-03-27T11:34:40.153Z,2.95
2023-03-27T11:36:24.643Z,3.05
2023-03-27T11:37:56.843Z,3.88
2023-03-27T11:39:06.992Z,4.82
2023-03-27T11:40:14.382Z,3.92
2023-03-27T11:41:17.360Z,2.25
2023-03-27T11:42:23.970Z,2.45
2023-03-27T11:43:26.836Z,2.28
2023-03-27T11:44:30.832Z,2.92
2023-03-27T11:45:47.801Z,4.97
2023-03-27T11:47:08.066Z,5.50
2023-03-27T11:48:23.050Z,2.53
2023-03-27T11:49:34.515Z,4.32
2023-03-27T11:50:48.813Z,2.55
2023-03-27T11:52:06.679Z,3.72
2023-03-27T11:53:14.593Z,2.65
2023-03-27T11:54:51.788Z,3.95
2023-03-27T11:56:25.497Z,6.50
2023-03-27T11:57:47.768Z,2.92
2023-03-27T11:59:48.957Z,4.28
2023-03-27T12:01:02.583Z,2.50
2023-03-27T12:02:29.333Z,4.35
2023-03-27T12:03:49.434Z,3.13
2023-03-27T12:05:18.823Z,2.30
2023-03-27T12:06:33.942Z,5.43
2023-03-27T12:07:52.759Z,6.18
2023-03-27T12:09:19.529Z,3.20
2023-03-27T12:10:44.001Z,3.67
2023-03-27T12:12:08.008Z,2.25
2023-03-27T12:13:42.064Z,4.35
2023-03-27T12:15:35.317Z,2.78
2023-03-27T12:16:43.504Z,1.67
2023-03-27T12:17:58.976Z,3.85
2023-03-27T12:19:34.113Z,2.35
2023-03-27T12:21:24.806Z,2.83
2023-03-27T12:23:11.279Z,1.05
2023-03-27T12:25:02.192Z,1.90
2023-03-27T12:26:51.654Z,1.80
2023-03-27T12:28:43.677Z,3.65
2023-03-27T12:29:57.406Z,1.67
2023-03-27T12:31:27.535Z,2.47
2023-03-27T12:32:49.967Z,5.78
2023-03-27T12:34:07.134Z,4.70
2023-03-27T12:35:21.721Z,2.58
2023-03-27T12:36:26.727Z,3.10
2023-03-27T12:37:35.586Z,2.10
2023-03-27T12:38:43.537Z,3.53
2023-03-27T12:39:51.135Z,2.50
2023-03-27T12:41:06.283Z,4.15
2023-03-27T12:43:08.366Z,3.67
2023-03-27T12:44:13.937Z,1.73
2023-03-27T12:45:26.229Z,2.03
2023-03-27T12:46:40.508Z,2.55
2023-03-27T12:48:18.572Z,2.75
2023-03-27T12:49:44.433Z,2.72
2023-03-27T12:50:57.207Z,4.20
2023-03-27T12:52:05.649Z,2.53
2023-03-27T12:53:29.434Z,2.13
2023-03-27T12:55:12.211Z,1.92
2023-03-27T12:56:41.484Z,2.75
2023-03-27T12:57:52.089Z,3.38
2023-03-27T12:59:23.759Z,1.65
2023-03-27T13:00:29.492Z,3.70
2023-03-27T13:01:52.980Z,1.67
2023-03-27T13:04:46.890Z,2.55
2023-03-27T13:06:28.212Z,3.90
2023-03-27T13:08:04.138Z,2.17
2023-03-27T13:09:57.617Z,2.55
2023-03-27T13:11:25.137Z,1.80
2023-03-27T13:12:45.328Z,1.50
2023-03-27T13:14:18.103Z,1.98
2023-03-27T13:15:31.820Z,3.15
2023-03-27T13:16:57.466Z,2.33
2023-03-27T13:18:08.719Z,2.97
2023-03-27T13:19:38.889Z,3.20
2023-03-27T13:20:49.443Z,2.88
2023-03-27T13:22:10.196Z,2.70
2023-03-27T13:23:53.670Z,4.95
2023-03-27T13:25:22.275Z,3.35
2023-03-27T13:26:44.076Z,2.90
2023-03-27T13:28:22.051Z,1.77
2023-03-27T13:29:35.107Z,4.30
2023-03-27T13:31:01.153Z,4.43
2023-03-27T13:32:34.579Z,2.75
2023-03-27T13:34:12.104Z,3.22
2023-03-27T13:35:53.384Z,1.75
2023-03-27T13:37:09.724Z,2.60
2023-03-27T13:38:15.752Z,3.53
2023-03-27T13:39:42.646Z,2.50
2023-03-27T13:40:48.532Z,2.78
2023-03-27T13:42:02.476Z,4.00
2023-03-27T13:43:25.512Z,3.15
2023-03-27T13:44:37.906Z,3.88
2023-03-27T13:45:51.034Z,2.97
2023-03-27T13:47:34.646Z,1.63
2023-03-27T13:49:33.123Z,3.30
2023-03-27T13:50:55.100Z,2.55
2023-03-27T13:52:21.981Z,3.13
2023-03-27T13:53:42.985Z,2.55
2023-03-27T13:55:22.052Z,2.45
2023-03-27T13:56:56.594Z,3.60
2023-03-27T13:58:59.416Z,2.65
2023-03-27T14:00:02.166Z,2.55
2023-03-27T14:01:57.124Z,4.20
2023-03-27T14:03:14.147Z,2.72
2023-03-27T14:04:46.135Z,3.35
2023-03-27T14:07:48.852Z,5.60
2023-03-27T14:09:35.817Z,2.50
2023-03-27T14:11:22.141Z,3.17
2023-03-27T14:12:48.636Z,1.15
2023-03-27T14:14:17.429Z,2.83
2023-03-27T14:15:47.201Z,1.42
2023-03-27T14:17:27.142Z,1.85
2023-03-27T14:18:30.759Z,1.48
2023-03-27T14:20:07.194Z,2.10
2023-03-27T14:21:27.695Z,1.38
2023-03-27T14:22:44.460Z,0.95
2023-03-27T14:23:47.872Z,2.00
2023-03-27T14:25:03.465Z,2.13
2023-03-27T14:26:26.161Z,1.75
2023-03-27T14:27:32.660Z,1.83
2023-03-27T14:28:49.710Z,3.40
2023-03-27T14:30:09.512Z,2.85
2023-03-27T14:31:20.222Z,3.35
2023-03-27T14:32:46.219Z,1.83
2023-03-27T14:33:54.316Z,3.33
2023-03-27T14:35:05.986Z,3.58
2023-03-27T14:36:17.704Z,1.60
2023-03-27T14:37:30.696Z,3.75
2023-03-27T14:38:41.796Z,3.45
2023-03-27T14:39:54.341Z,2.72
2023-03-27T14:41:00.376Z,2.42
2023-03-27T14:42:20.661Z,2.40
2023-03-27T14:43:28.355Z,1.38
2023-03-27T14:44:32.360Z,2.05
2023-03-27T14:45:40.420Z,2.35
2023-03-27T14:46:49.642Z,3.88
2023-03-27T14:47:59.991Z,3.78
2023-03-27T14:49:12.172Z,2.15
2023-03-27T14:50:17.003Z,3.25
2023-03-27T14:51:25.387Z,2.90
2023-03-27T14:52:35.343Z,3.10
2023-03-27T14:54:00.979Z,3.47
2023-03-27T14:55:16.397Z,2.28
2023-03-27T14:56:38.187Z,2.75
2023-03-27T14:58:11.135Z,3.13
2023-03-27T14:59:23.146Z,3.35
2023-03-27T15:00:32.812Z,1.95
2023-03-27T15:01:38.919Z,3.20
2023-03-27T15:02:42.384Z,2.47
2023-03-27T15:03:47.587Z,2.53
2023-03-27T15:04:51.366Z,4.28
2023-03-27T15:05:59.230Z,2.38
2023-03-27T15:07:15.654Z,1.70
2023-03-27T15:08:34.071Z,1.63
2023-03-27T15:10:22.787Z,1.67
2023-03-27T15:11:49.623Z,1.88
2023-03-27T15:12:57.436Z,2.30
2023-03-27T15:14:02.843Z,4.18
2023-03-27T15:15:25.637Z,2.35
2023-03-27T15:16:30.586Z,3.30
2023-03-27T15:17:34.701Z,1.63
2023-03-27T15:18:45.062Z,6.88
2023-03-27T15:19:53.472Z,2.60
2023-03-27T15:20:57.093Z,2.92
2023-03-27T15:22:17.033Z,3.58
2023-03-27T15:23:33.724Z,3.75
2023-03-27T15:24:44.663Z,6.45
2023-03-27T15:25:56.530Z,2.22
2023-03-27T15:27:00.950Z,2.88
2023-03-27T15:28:08.292Z,3.00
2023-03-27T15:30:35.936Z,3.65
2023-03-27T15:31:38.810Z,3.50
2023-03-27T15:32:51.550Z,4.07
2023-03-27T15:34:03.808Z,2.13
2023-03-27T15:35:09.860Z,3.10
2023-03-27T15:36:27.798Z,2.05
2023-03-27T15:37:33.911Z,3.95
2023-03-27T15:38:39.366Z,5.28
2023-03-27T15:39:58.945Z,2.35
2023-03-27T15:41:22.838Z,2.45
2023-03-27T15:42:25.613Z,4.07
2023-03-27T15:43:28.940Z,4.75
2023-03-27T15:44:33.040Z,4.15
2023-03-27T15:46:07.931Z,5.25
2023-03-27T15:47:35.772Z,2.78
2023-03-27T15:48:46.172Z,2.40
2023-03-27T15:49:50.537Z,3.15
2023-03-27T15:51:03.170Z,2.78
2023-03-27T15:52:33.404Z,3.97
2023-03-27T15:53:38.575Z,3.47
2023-03-27T15:54:53.815Z,2.85
2023-03-27T15:55:57.203Z,4.30
2023-03-27T15:57:09.685Z,4.13
2023-03-27T15:58:24.171Z,3.10
2023-03-27T15:59:26.799Z,5.78
2023-03-27T16:01:41.473Z,2.33
2023-03-27T16:02:49.140Z,3.83
2023-03-27T16:03:53.779Z,3.45
2023-03-27T16:04:59.525Z,2.67
2023-03-27T16:06:03.894Z,3.15
2023-03-27T16:07:34.171Z,3.70
2023-03-27T16:08:38.426Z,3.65
2023-03-27T16:09:49.174Z,5.15
2023-03-27T16:10:51.824Z,4.22
2023-03-27T16:11:55.064Z,3.42
2023-03-27T16:13:02.331Z,3.45
2023-03-27T16:14:30.776Z,8.48
2023-03-27T16:15:38.036Z,3.92
2023-03-27T16:16:41.740Z,3.58
2023-03-27T16:17:46.915Z,3.92
2023-03-27T16:19:13.768Z,2.45
2023-03-27T16:21:25.423Z,3.83
2023-03-27T16:22:32.406Z,2.75
2023-03-27T16:23:34.552Z,4.95
2023-03-27T16:24:36.371Z,4.25
2023-03-27T16:25:39.281Z,3.13
2023-03-27T16:26:41.201Z,5.45
2023-03-27T16:27:47.150Z,3.75
2023-03-27T16:28:57.336Z,2.30
2023-03-27T16:30:00.901Z,3.70
2023-03-27T16:31:21.608Z,4.65
2023-03-27T16:32:24.090Z,2.75
2023-03-27T16:33:30.895Z,4.80
2023-03-27T16:34:32.677Z,4.03
2023-03-27T16:35:34.558Z,3.80
2023-03-27T16:36:37.598Z,7.28
2023-03-27T16:37:39.839Z,3.17
2023-03-27T16:38:43.911Z,3.88
2023-03-27T16:39:46.545Z,5.40
2023-03-27T16:41:51.097Z,2.53
2023-03-27T16:43:54.471Z,3.45
2023-03-27T16:44:56.412Z,3.05
2023-03-27T16:46:00.509Z,2.92